sensor_id;sensor_type;location;lat;lon;timestamp;P1;durP1;ratioP1;P2;durP2;ratioP2
10469;SDS011;5282;47.052;15.458;2023-05-29T00:01:18;5.67;;;5.27;;
10469;SDS011;5282;47.052;15.458;2023-05-29T00:03:46;6.10;;;5.70;;
10469;SDS011;5282;47.052;15.458;2023-05-29T00:06:13;5.50;;;5.20;;
10469;SDS011;5282;47.052;15.458;2023-05-29T00:08:41;5.87;;;5.37;;
10469;SDS011;5282;47.052;15.458;2023-05-29T00:11:08;5.77;;;5.47;;
10469;SDS011;5282;47.052;15.458;2023-05-29T00:13:37;5.37;;;5.07;;
10469;SDS011;5282;47.052;15.458;2023-05-29T00:16:04;6.23;;;5.70;;
10469;SDS011;5282;47.052;15.458;2023-05-29T00:18:31;5.43;;;5.03;;
10469;SDS011;5282;47.052;15.458;2023-05-29T00:20:58;5.60;;;5.20;;
10469;SDS011;5282;47.052;15.458;2023-05-29T00:23:25;5.30;;;4.87;;
10469;SDS011;5282;47.052;15.458;2023-05-29T00:25:53;5.20;;;4.90;;
10469;SDS011;5282;47.052;15.458;2023-05-29T00:28:20;5.97;;;5.17;;
10469;SDS011;5282;47.052;15.458;2023-05-29T00:30:47;5.60;;;5.03;;
10469;SDS011;5282;47.052;15.458;2023-05-29T00:33:13;5.13;;;4.83;;
10469;SDS011;5282;47.052;15.458;2023-05-29T00:35:40;5.13;;;4.83;;
10469;SDS011;5282;47.052;15.458;2023-05-29T00:38:07;5.43;;;5.03;;
10469;SDS011;5282;47.052;15.458;2023-05-29T00:40:36;5.43;;;5.03;;
10469;SDS011;5282;47.052;15.458;2023-05-29T00:43:04;5.30;;;4.90;;
10469;SDS011;5282;47.052;15.458;2023-05-29T00:45:31;5.57;;;5.17;;
10469;SDS011;5282;47.052;15.458;2023-05-29T00:48:01;5.63;;;4.93;;
10469;SDS011;5282;47.052;15.458;2023-05-29T00:50:28;5.33;;;4.87;;
10469;SDS011;5282;47.052;15.458;2023-05-29T00:52:56;5.00;;;4.60;;
10469;SDS011;5282;47.052;15.458;2023-05-29T00:55:23;5.93;;;5.43;;
10469;SDS011;5282;47.052;15.458;2023-05-29T00:57:51;5.30;;;4.93;;
10469;SDS011;5282;47.052;15.458;2023-05-29T01:00:19;5.27;;;4.70;;
10469;SDS011;5282;47.052;15.458;2023-05-29T01:02:47;5.47;;;4.97;;
10469;SDS011;5282;47.052;15.458;2023-05-29T01:05:14;5.13;;;4.80;;
10469;SDS011;5282;47.052;15.458;2023-05-29T01:07:41;4.90;;;4.70;;
10469;SDS011;5282;47.052;15.458;2023-05-29T01:10:11;5.40;;;5.10;;
10469;SDS011;5282;47.052;15.458;2023-05-29T01:12:40;4.87;;;4.57;;
10469;SDS011;5282;47.052;15.458;2023-05-29T01:15:16;5.47;;;5.10;;
10469;SDS011;5282;47.052;15.458;2023-05-29T01:17:54;10.70;;;4.93;;
10469;SDS011;5282;47.052;15.458;2023-05-29T01:20:34;6.40;;;5.80;;
10469;SDS011;5282;47.052;15.458;2023-05-29T01:23:08;5.57;;;5.10;;
10469;SDS011;5282;47.052;15.458;2023-05-29T01:25:58;5.70;;;5.30;;
10469;SDS011;5282;47.052;15.458;2023-05-29T01:28:36;5.37;;;4.97;;
10469;SDS011;5282;47.052;15.458;2023-05-29T01:31:07;5.87;;;5.37;;
10469;SDS011;5282;47.052;15.458;2023-05-29T01:33:38;5.40;;;5.03;;
10469;SDS011;5282;47.052;15.458;2023-05-29T01:36:06;5.07;;;4.67;;
10469;SDS011;5282;47.052;15.458;2023-05-29T01:38:33;5.37;;;4.97;;
10469;SDS011;5282;47.052;15.458;2023-05-29T01:41:00;4.60;;;4.23;;
10469;SDS011;5282;47.052;15.458;2023-05-29T01:43:28;5.30;;;4.90;;
10469;SDS011;5282;47.052;15.458;2023-05-29T01:45:57;5.23;;;4.93;;
10469;SDS011;5282;47.052;15.458;2023-05-29T01:48:24;5.20;;;4.90;;
10469;SDS011;5282;47.052;15.458;2023-05-29T01:50:51;5.50;;;5.13;;
10469;SDS011;5282;47.052;15.458;2023-05-29T01:53:18;6.07;;;5.47;;
10469;SDS011;5282;47.052;15.458;2023-05-29T01:55:46;5.07;;;4.70;;
10469;SDS011;5282;47.052;15.458;2023-05-29T01:58:13;6.07;;;5.60;;
10469;SDS011;5282;47.052;15.458;2023-05-29T02:00:42;5.23;;;4.93;;
10469;SDS011;5282;47.052;15.458;2023-05-29T02:03:12;5.23;;;4.93;;
10469;SDS011;5282;47.052;15.458;2023-05-29T02:05:39;5.63;;;5.23;;
10469;SDS011;5282;47.052;15.458;2023-05-29T02:08:06;5.33;;;4.93;;
10469;SDS011;5282;47.052;15.458;2023-05-29T02:10:33;5.80;;;5.37;;
10469;SDS011;5282;47.052;15.458;2023-05-29T02:13:00;5.70;;;5.30;;
10469;SDS011;5282;47.052;15.458;2023-05-29T02:15:27;5.43;;;5.13;;
10469;SDS011;5282;47.052;15.458;2023-05-29T02:17:54;5.23;;;4.87;;
10469;SDS011;5282;47.052;15.458;2023-05-29T02:20:22;5.93;;;5.50;;
10469;SDS011;5282;47.052;15.458;2023-05-29T02:22:49;5.17;;;4.87;;
10469;SDS011;5282;47.052;15.458;2023-05-29T02:25:16;4.93;;;4.63;;
10469;SDS011;5282;47.052;15.458;2023-05-29T02:27:43;5.93;;;5.33;;
10469;SDS011;5282;47.052;15.458;2023-05-29T02:30:10;5.60;;;5.20;;
10469;SDS011;5282;47.052;15.458;2023-05-29T02:32:37;5.63;;;5.23;;
10469;SDS011;5282;47.052;15.458;2023-05-29T02:35:05;5.87;;;5.47;;
10469;SDS011;5282;47.052;15.458;2023-05-29T02:37:34;5.70;;;5.27;;
10469;SDS011;5282;47.052;15.458;2023-05-29T02:40:01;6.27;;;5.67;;
10469;SDS011;5282;47.052;15.458;2023-05-29T02:42:28;5.97;;;5.37;;
10469;SDS011;5282;47.052;15.458;2023-05-29T02:44:54;6.23;;;5.77;;
10469;SDS011;5282;47.052;15.458;2023-05-29T02:47:21;5.77;;;5.37;;
10469;SDS011;5282;47.052;15.458;2023-05-29T02:49:48;6.60;;;6.00;;
10469;SDS011;5282;47.052;15.458;2023-05-29T02:52:15;6.17;;;5.43;;
10469;SDS011;5282;47.052;15.458;2023-05-29T02:54:43;6.20;;;5.80;;
10469;SDS011;5282;47.052;15.458;2023-05-29T02:57:10;5.93;;;5.47;;
10469;SDS011;5282;47.052;15.458;2023-05-29T02:59:36;6.13;;;5.60;;
10469;SDS011;5282;47.052;15.458;2023-05-29T03:02:03;5.60;;;5.23;;
10469;SDS011;5282;47.052;15.458;2023-05-29T03:04:31;5.63;;;5.23;;
10469;SDS011;5282;47.052;15.458;2023-05-29T03:06:58;5.90;;;5.40;;
10469;SDS011;5282;47.052;15.458;2023-05-29T03:09:25;5.80;;;5.43;;
10469;SDS011;5282;47.052;15.458;2023-05-29T03:11:53;5.93;;;5.53;;
10469;SDS011;5282;47.052;15.458;2023-05-29T03:14:20;6.10;;;5.70;;
10469;SDS011;5282;47.052;15.458;2023-05-29T03:16:48;6.17;;;5.57;;
10469;SDS011;5282;47.052;15.458;2023-05-29T03:19:16;6.33;;;5.47;;
10469;SDS011;5282;47.052;15.458;2023-05-29T03:21:42;6.40;;;5.90;;
10469;SDS011;5282;47.052;15.458;2023-05-29T03:24:10;6.30;;;5.80;;
10469;SDS011;5282;47.052;15.458;2023-05-29T03:26:38;6.00;;;5.50;;
10469;SDS011;5282;47.052;15.458;2023-05-29T03:29:07;6.20;;;5.70;;
10469;SDS011;5282;47.052;15.458;2023-05-29T03:31:34;7.37;;;5.50;;
10469;SDS011;5282;47.052;15.458;2023-05-29T03:34:01;6.17;;;5.63;;
10469;SDS011;5282;47.052;15.458;2023-05-29T03:36:29;6.00;;;5.50;;
10469;SDS011;5282;47.052;15.458;2023-05-29T03:38:57;6.50;;;5.93;;
10469;SDS011;5282;47.052;15.458;2023-05-29T03:41:24;6.13;;;5.70;;
10469;SDS011;5282;47.052;15.458;2023-05-29T03:43:51;6.13;;;5.63;;
10469;SDS011;5282;47.052;15.458;2023-05-29T03:46:19;5.77;;;5.27;;
10469;SDS011;5282;47.052;15.458;2023-05-29T03:48:46;6.13;;;5.63;;
10469;SDS011;5282;47.052;15.458;2023-05-29T03:51:13;6.00;;;5.53;;
10469;SDS011;5282;47.052;15.458;2023-05-29T03:53:39;5.67;;;5.27;;
10469;SDS011;5282;47.052;15.458;2023-05-29T03:56:06;5.43;;;5.13;;
10469;SDS011;5282;47.052;15.458;2023-05-29T03:58:33;6.10;;;5.60;;
10469;SDS011;5282;47.052;15.458;2023-05-29T04:01:01;5.50;;;5.20;;
10469;SDS011;5282;47.052;15.458;2023-05-29T04:03:29;5.97;;;5.40;;
10469;SDS011;5282;47.052;15.458;2023-05-29T04:05:57;5.40;;;5.10;;
10469;SDS011;5282;47.052;15.458;2023-05-29T04:08:24;5.57;;;5.23;;
10469;SDS011;5282;47.052;15.458;2023-05-29T04:10:52;5.97;;;5.47;;
10469;SDS011;5282;47.052;15.458;2023-05-29T04:13:19;6.60;;;6.00;;
10469;SDS011;5282;47.052;15.458;2023-05-29T04:15:46;5.80;;;5.37;;
10469;SDS011;5282;47.052;15.458;2023-05-29T04:18:13;5.57;;;5.20;;
10469;SDS011;5282;47.052;15.458;2023-05-29T04:20:41;6.20;;;5.60;;
10469;SDS011;5282;47.052;15.458;2023-05-29T04:23:10;6.67;;;6.07;;
10469;SDS011;5282;47.052;15.458;2023-05-29T04:25:37;6.53;;;5.93;;
10469;SDS011;5282;47.052;15.458;2023-05-29T04:28:04;7.90;;;5.87;;
10469;SDS011;5282;47.052;15.458;2023-05-29T04:30:31;6.43;;;5.90;;
10469;SDS011;5282;47.052;15.458;2023-05-29T04:32:59;6.30;;;5.80;;
10469;SDS011;5282;47.052;15.458;2023-05-29T04:35:26;6.23;;;5.73;;
10469;SDS011;5282;47.052;15.458;2023-05-29T04:37:55;6.40;;;5.90;;
10469;SDS011;5282;47.052;15.458;2023-05-29T04:40:23;6.90;;;6.20;;
10469;SDS011;5282;47.052;15.458;2023-05-29T04:42:49;6.30;;;5.67;;
10469;SDS011;5282;47.052;15.458;2023-05-29T04:45:19;6.30;;;5.87;;
10469;SDS011;5282;47.052;15.458;2023-05-29T04:47:47;5.93;;;5.50;;
10469;SDS011;5282;47.052;15.458;2023-05-29T04:50:15;6.03;;;5.60;;
10469;SDS011;5282;47.052;15.458;2023-05-29T04:52:43;7.07;;;6.27;;
10469;SDS011;5282;47.052;15.458;2023-05-29T04:55:11;6.17;;;5.77;;
10469;SDS011;5282;47.052;15.458;2023-05-29T04:57:38;6.33;;;5.93;;
10469;SDS011;5282;47.052;15.458;2023-05-29T05:00:06;6.57;;;5.80;;
10469;SDS011;5282;47.052;15.458;2023-05-29T05:02:39;7.27;;;6.60;;
10469;SDS011;5282;47.052;15.458;2023-05-29T05:05:07;6.10;;;5.70;;
10469;SDS011;5282;47.052;15.458;2023-05-29T05:07:34;6.63;;;6.00;;
10469;SDS011;5282;47.052;15.458;2023-05-29T05:10:01;6.20;;;5.70;;
10469;SDS011;5282;47.052;15.458;2023-05-29T05:12:30;6.57;;;5.97;;
10469;SDS011;5282;47.052;15.458;2023-05-29T05:14:57;6.53;;;6.10;;
10469;SDS011;5282;47.052;15.458;2023-05-29T05:17:23;6.27;;;5.77;;
10469;SDS011;5282;47.052;15.458;2023-05-29T05:19:50;6.30;;;5.80;;
10469;SDS011;5282;47.052;15.458;2023-05-29T05:22:18;6.60;;;6.00;;
10469;SDS011;5282;47.052;15.458;2023-05-29T05:24:45;6.50;;;5.90;;
10469;SDS011;5282;47.052;15.458;2023-05-29T05:27:13;6.80;;;6.20;;
10469;SDS011;5282;47.052;15.458;2023-05-29T05:29:41;6.80;;;6.10;;
10469;SDS011;5282;47.052;15.458;2023-05-29T05:32:08;6.27;;;5.67;;
10469;SDS011;5282;47.052;15.458;2023-05-29T05:34:35;6.10;;;5.60;;
10469;SDS011;5282;47.052;15.458;2023-05-29T05:37:02;6.73;;;6.10;;
10469;SDS011;5282;47.052;15.458;2023-05-29T05:39:29;5.90;;;5.50;;
10469;SDS011;5282;47.052;15.458;2023-05-29T05:41:56;6.27;;;5.87;;
10469;SDS011;5282;47.052;15.458;2023-05-29T05:44:23;6.10;;;5.70;;
10469;SDS011;5282;47.052;15.458;2023-05-29T05:46:51;6.20;;;5.70;;
10469;SDS011;5282;47.052;15.458;2023-05-29T05:49:18;6.73;;;6.03;;
10469;SDS011;5282;47.052;15.458;2023-05-29T05:51:44;6.00;;;5.60;;
10469;SDS011;5282;47.052;15.458;2023-05-29T05:54:13;6.37;;;5.80;;
10469;SDS011;5282;47.052;15.458;2023-05-29T05:56:40;6.37;;;5.87;;
10469;SDS011;5282;47.052;15.458;2023-05-29T05:59:07;5.60;;;5.17;;
10469;SDS011;5282;47.052;15.458;2023-05-29T06:01:34;5.70;;;5.30;;
10469;SDS011;5282;47.052;15.458;2023-05-29T06:04:03;6.37;;;5.77;;
10469;SDS011;5282;47.052;15.458;2023-05-29T06:06:30;6.23;;;5.73;;
10469;SDS011;5282;47.052;15.458;2023-05-29T06:08:57;5.77;;;5.47;;
10469;SDS011;5282;47.052;15.458;2023-05-29T06:11:26;5.73;;;5.30;;
10469;SDS011;5282;47.052;15.458;2023-05-29T06:13:53;6.13;;;5.73;;
10469;SDS011;5282;47.052;15.458;2023-05-29T06:16:20;5.90;;;5.30;;
10469;SDS011;5282;47.052;15.458;2023-05-29T06:18:47;6.10;;;5.70;;
10469;SDS011;5282;47.052;15.458;2023-05-29T06:21:15;5.93;;;5.60;;
10469;SDS011;5282;47.052;15.458;2023-05-29T06:23:42;6.37;;;5.87;;
10469;SDS011;5282;47.052;15.458;2023-05-29T06:26:09;6.53;;;5.80;;
10469;SDS011;5282;47.052;15.458;2023-05-29T06:28:37;6.27;;;5.70;;
10469;SDS011;5282;47.052;15.458;2023-05-29T06:31:04;6.40;;;5.90;;
10469;SDS011;5282;47.052;15.458;2023-05-29T06:33:31;5.60;;;5.20;;
10469;SDS011;5282;47.052;15.458;2023-05-29T06:35:57;5.83;;;5.43;;
10469;SDS011;5282;47.052;15.458;2023-05-29T06:38:26;5.87;;;5.37;;
10469;SDS011;5282;47.052;15.458;2023-05-29T06:40:52;6.03;;;5.57;;
10469;SDS011;5282;47.052;15.458;2023-05-29T06:43:19;5.83;;;5.37;;
10469;SDS011;5282;47.052;15.458;2023-05-29T06:45:46;5.60;;;5.30;;
10469;SDS011;5282;47.052;15.458;2023-05-29T06:48:13;6.30;;;5.70;;
10469;SDS011;5282;47.052;15.458;2023-05-29T06:50:40;5.53;;;5.13;;
10469;SDS011;5282;47.052;15.458;2023-05-29T06:53:07;5.40;;;5.00;;
10469;SDS011;5282;47.052;15.458;2023-05-29T06:55:35;6.23;;;5.80;;
10469;SDS011;5282;47.052;15.458;2023-05-29T06:58:02;5.93;;;5.43;;
10469;SDS011;5282;47.052;15.458;2023-05-29T07:00:28;5.60;;;5.30;;
10469;SDS011;5282;47.052;15.458;2023-05-29T07:02:55;5.57;;;5.27;;
10469;SDS011;5282;47.052;15.458;2023-05-29T07:05:23;6.23;;;5.83;;
10469;SDS011;5282;47.052;15.458;2023-05-29T07:07:49;5.33;;;5.07;;
10469;SDS011;5282;47.052;15.458;2023-05-29T07:10:16;5.77;;;5.37;;
10469;SDS011;5282;47.052;15.458;2023-05-29T07:12:44;5.90;;;5.30;;
10469;SDS011;5282;47.052;15.458;2023-05-29T07:15:11;6.07;;;4.83;;
10469;SDS011;5282;47.052;15.458;2023-05-29T07:17:38;5.13;;;4.77;;
10469;SDS011;5282;47.052;15.458;2023-05-29T07:20:05;4.73;;;4.53;;
10469;SDS011;5282;47.052;15.458;2023-05-29T07:22:33;5.73;;;5.27;;
10469;SDS011;5282;47.052;15.458;2023-05-29T07:25:00;5.20;;;4.90;;
10469;SDS011;5282;47.052;15.458;2023-05-29T07:27:27;5.07;;;4.63;;
10469;SDS011;5282;47.052;15.458;2023-05-29T07:29:55;5.70;;;5.30;;
10469;SDS011;5282;47.052;15.458;2023-05-29T07:32:22;5.00;;;4.60;;
10469;SDS011;5282;47.052;15.458;2023-05-29T07:34:49;5.47;;;5.03;;
10469;SDS011;5282;47.052;15.458;2023-05-29T07:37:16;5.27;;;4.97;;
10469;SDS011;5282;47.052;15.458;2023-05-29T07:39:44;4.80;;;4.40;;
10469;SDS011;5282;47.052;15.458;2023-05-29T07:42:11;5.17;;;4.87;;
10469;SDS011;5282;47.052;15.458;2023-05-29T07:44:38;5.03;;;4.70;;
10469;SDS011;5282;47.052;15.458;2023-05-29T07:47:08;5.27;;;4.87;;
10469;SDS011;5282;47.052;15.458;2023-05-29T07:49:35;5.00;;;4.60;;
10469;SDS011;5282;47.052;15.458;2023-05-29T07:52:02;5.30;;;4.90;;
10469;SDS011;5282;47.052;15.458;2023-05-29T07:54:30;4.67;;;4.47;;
10469;SDS011;5282;47.052;15.458;2023-05-29T07:56:58;5.60;;;4.97;;
10469;SDS011;5282;47.052;15.458;2023-05-29T07:59:24;5.20;;;4.77;;
10469;SDS011;5282;47.052;15.458;2023-05-29T08:01:51;6.20;;;4.90;;
10469;SDS011;5282;47.052;15.458;2023-05-29T08:04:20;5.00;;;4.70;;
10469;SDS011;5282;47.052;15.458;2023-05-29T08:06:49;5.30;;;4.83;;
10469;SDS011;5282;47.052;15.458;2023-05-29T08:09:16;5.23;;;4.83;;
10469;SDS011;5282;47.052;15.458;2023-05-29T08:11:43;4.90;;;4.60;;
10469;SDS011;5282;47.052;15.458;2023-05-29T08:14:11;5.00;;;4.60;;
10469;SDS011;5282;47.052;15.458;2023-05-29T08:16:40;5.10;;;4.70;;
10469;SDS011;5282;47.052;15.458;2023-05-29T08:19:07;5.27;;;4.57;;
10469;SDS011;5282;47.052;15.458;2023-05-29T08:21:36;4.77;;;4.43;;
10469;SDS011;5282;47.052;15.458;2023-05-29T08:24:03;5.03;;;4.63;;
10469;SDS011;5282;47.052;15.458;2023-05-29T08:26:31;4.70;;;4.50;;
10469;SDS011;5282;47.052;15.458;2023-05-29T08:28:58;5.20;;;4.77;;
10469;SDS011;5282;47.052;15.458;2023-05-29T08:31:25;5.30;;;4.80;;
10469;SDS011;5282;47.052;15.458;2023-05-29T08:33:52;4.47;;;4.27;;
10469;SDS011;5282;47.052;15.458;2023-05-29T08:36:19;5.47;;;4.97;;
10469;SDS011;5282;47.052;15.458;2023-05-29T08:38:48;5.47;;;5.03;;
10469;SDS011;5282;47.052;15.458;2023-05-29T08:41:17;4.77;;;4.47;;
10469;SDS011;5282;47.052;15.458;2023-05-29T08:43:48;5.20;;;4.80;;
10469;SDS011;5282;47.052;15.458;2023-05-29T08:46:17;5.33;;;4.93;;
10469;SDS011;5282;47.052;15.458;2023-05-29T08:48:46;5.17;;;4.77;;
10469;SDS011;5282;47.052;15.458;2023-05-29T08:51:16;5.27;;;4.97;;
10469;SDS011;5282;47.052;15.458;2023-05-29T08:53:46;5.23;;;4.83;;
10469;SDS011;5282;47.052;15.458;2023-05-29T08:56:15;5.17;;;4.83;;
10469;SDS011;5282;47.052;15.458;2023-05-29T08:58:42;5.63;;;4.63;;
10469;SDS011;5282;47.052;15.458;2023-05-29T09:01:11;5.70;;;5.20;;
10469;SDS011;5282;47.052;15.458;2023-05-29T09:03:38;7.00;;;5.30;;
10469;SDS011;5282;47.052;15.458;2023-05-29T09:06:07;5.27;;;4.77;;
10469;SDS011;5282;47.052;15.458;2023-05-29T09:08:34;5.17;;;4.77;;
10469;SDS011;5282;47.052;15.458;2023-05-29T09:11:03;5.00;;;4.60;;
10469;SDS011;5282;47.052;15.458;2023-05-29T09:13:30;5.13;;;4.57;;
10469;SDS011;5282;47.052;15.458;2023-05-29T09:15:57;5.07;;;4.70;;
10469;SDS011;5282;47.052;15.458;2023-05-29T09:18:28;5.03;;;4.63;;
10469;SDS011;5282;47.052;15.458;2023-05-29T09:20:56;5.83;;;5.17;;
10469;SDS011;5282;47.052;15.458;2023-05-29T09:23:24;4.97;;;4.67;;
10469;SDS011;5282;47.052;15.458;2023-05-29T09:25:53;5.73;;;5.20;;
10469;SDS011;5282;47.052;15.458;2023-05-29T09:28:21;5.73;;;5.23;;
10469;SDS011;5282;47.052;15.458;2023-05-29T09:30:52;5.20;;;4.90;;
10469;SDS011;5282;47.052;15.458;2023-05-29T09:33:20;5.00;;;4.60;;
10469;SDS011;5282;47.052;15.458;2023-05-29T09:35:47;5.20;;;4.90;;
10469;SDS011;5282;47.052;15.458;2023-05-29T09:38:16;5.60;;;5.17;;
10469;SDS011;5282;47.052;15.458;2023-05-29T09:40:44;5.33;;;5.03;;
10469;SDS011;5282;47.052;15.458;2023-05-29T09:43:12;5.07;;;4.73;;
10469;SDS011;5282;47.052;15.458;2023-05-29T09:45:43;5.70;;;5.30;;
10469;SDS011;5282;47.052;15.458;2023-05-29T09:48:12;5.60;;;5.20;;
10469;SDS011;5282;47.052;15.458;2023-05-29T09:50:40;5.47;;;5.07;;
10469;SDS011;5282;47.052;15.458;2023-05-29T09:53:16;5.40;;;5.00;;
10469;SDS011;5282;47.052;15.458;2023-05-29T09:55:49;5.20;;;4.80;;
10469;SDS011;5282;47.052;15.458;2023-05-29T09:58:17;5.17;;;4.87;;
10469;SDS011;5282;47.052;15.458;2023-05-29T10:00:45;5.60;;;5.20;;
10469;SDS011;5282;47.052;15.458;2023-05-29T10:03:13;5.13;;;4.83;;
10469;SDS011;5282;47.052;15.458;2023-05-29T10:05:42;5.37;;;5.00;;
10469;SDS011;5282;47.052;15.458;2023-05-29T10:08:11;5.00;;;4.70;;
10469;SDS011;5282;47.052;15.458;2023-05-29T10:10:43;5.13;;;4.83;;
10469;SDS011;5282;47.052;15.458;2023-05-29T10:13:13;5.50;;;5.00;;
10469;SDS011;5282;47.052;15.458;2023-05-29T10:15:42;5.20;;;5.00;;
10469;SDS011;5282;47.052;15.458;2023-05-29T10:18:13;5.53;;;5.22;;
10469;SDS011;5282;47.052;15.458;2023-05-29T10:20:46;5.30;;;4.85;;
10469;SDS011;5282;47.052;15.458;2023-05-29T10:23:17;5.00;;;4.75;;
10469;SDS011;5282;47.052;15.458;2023-05-29T10:25:51;5.75;;;5.43;;
10469;SDS011;5282;47.052;15.458;2023-05-29T10:28:19;5.80;;;5.40;;
10469;SDS011;5282;47.052;15.458;2023-05-29T10:30:49;5.55;;;5.25;;
10469;SDS011;5282;47.052;15.458;2023-05-29T10:33:26;5.47;;;5.10;;
10469;SDS011;5282;47.052;15.458;2023-05-29T10:36:04;5.73;;;5.33;;
10469;SDS011;5282;47.052;15.458;2023-05-29T10:38:37;5.57;;;5.28;;
10469;SDS011;5282;47.052;15.458;2023-05-29T10:47:06;5.70;;;5.30;;
10469;SDS011;5282;47.052;15.458;2023-05-29T10:49:37;5.68;;;5.30;;
10469;SDS011;5282;47.052;15.458;2023-05-29T10:52:04;5.38;;;5.00;;
10469;SDS011;5282;47.052;15.458;2023-05-29T10:54:49;5.45;;;5.00;;
10469;SDS011;5282;47.052;15.458;2023-05-29T10:57:18;5.72;;;5.32;;
10469;SDS011;5282;47.052;15.458;2023-05-29T10:59:47;5.90;;;5.50;;
10469;SDS011;5282;47.052;15.458;2023-05-29T11:02:18;5.28;;;4.97;;
10469;SDS011;5282;47.052;15.458;2023-05-29T11:07:52;5.72;;;5.30;;
10469;SDS011;5282;47.052;15.458;2023-05-29T11:13:25;5.82;;;5.32;;
10469;SDS011;5282;47.052;15.458;2023-05-29T11:16:09;5.25;;;4.95;;
10469;SDS011;5282;47.052;15.458;2023-05-29T11:18:38;5.15;;;4.95;;
10469;SDS011;5282;47.052;15.458;2023-05-29T11:21:12;5.32;;;4.95;;
10469;SDS011;5282;47.052;15.458;2023-05-29T11:23:50;5.40;;;5.00;;
10469;SDS011;5282;47.052;15.458;2023-05-29T11:26:18;5.63;;;5.13;;
10469;SDS011;5282;47.052;15.458;2023-05-29T11:28:47;5.70;;;5.40;;
10469;SDS011;5282;47.052;15.458;2023-05-29T11:31:14;5.70;;;5.32;;
10469;SDS011;5282;47.052;15.458;2023-05-29T11:33:45;5.78;;;5.45;;
10469;SDS011;5282;47.052;15.458;2023-05-29T11:36:16;5.85;;;5.45;;
10469;SDS011;5282;47.052;15.458;2023-05-29T11:38:44;5.97;;;5.60;;
10469;SDS011;5282;47.052;15.458;2023-05-29T11:41:11;6.03;;;5.50;;
10469;SDS011;5282;47.052;15.458;2023-05-29T11:43:38;5.93;;;5.53;;
10469;SDS011;5282;47.052;15.458;2023-05-29T11:46:14;5.35;;;5.05;;
10469;SDS011;5282;47.052;15.458;2023-05-29T11:48:45;5.93;;;5.43;;
10469;SDS011;5282;47.052;15.458;2023-05-29T11:51:13;5.72;;;5.43;;
10469;SDS011;5282;47.052;15.458;2023-05-29T11:53:42;5.38;;;5.07;;
10469;SDS011;5282;47.052;15.458;2023-05-29T11:56:09;5.22;;;4.97;;
10469;SDS011;5282;47.052;15.458;2023-05-29T11:58:37;5.47;;;5.18;;
10469;SDS011;5282;47.052;15.458;2023-05-29T12:01:04;5.53;;;5.10;;
10469;SDS011;5282;47.052;15.458;2023-05-29T12:03:37;5.60;;;5.30;;
10469;SDS011;5282;47.052;15.458;2023-05-29T12:06:05;5.20;;;4.90;;
10469;SDS011;5282;47.052;15.458;2023-05-29T12:08:32;5.65;;;5.28;;
10469;SDS011;5282;47.052;15.458;2023-05-29T12:11:01;5.47;;;5.18;;
10469;SDS011;5282;47.052;15.458;2023-05-29T12:13:28;5.03;;;4.82;;
10469;SDS011;5282;47.052;15.458;2023-05-29T12:15:56;5.03;;;4.82;;
10469;SDS011;5282;47.052;15.458;2023-05-29T12:18:24;4.97;;;4.78;;
10469;SDS011;5282;47.052;15.458;2023-05-29T12:20:56;5.13;;;4.82;;
10469;SDS011;5282;47.052;15.458;2023-05-29T12:23:24;5.43;;;5.13;;
10469;SDS011;5282;47.052;15.458;2023-05-29T12:25:52;5.22;;;4.93;;
10469;SDS011;5282;47.052;15.458;2023-05-29T12:28:20;5.20;;;4.90;;
10469;SDS011;5282;47.052;15.458;2023-05-29T12:30:47;5.28;;;4.97;;
10469;SDS011;5282;47.052;15.458;2023-05-29T12:33:25;5.10;;;4.70;;
10469;SDS011;5282;47.052;15.458;2023-05-29T12:35:54;5.72;;;5.28;;
10469;SDS011;5282;47.052;15.458;2023-05-29T12:38:23;5.40;;;5.10;;
10469;SDS011;5282;47.052;15.458;2023-05-29T12:40:52;4.97;;;4.78;;
10469;SDS011;5282;47.052;15.458;2023-05-29T12:43:21;4.95;;;4.75;;
10469;SDS011;5282;47.052;15.458;2023-05-29T12:45:53;5.03;;;4.82;;
10469;SDS011;5282;47.052;15.458;2023-05-29T12:48:25;5.30;;;4.97;;
10469;SDS011;5282;47.052;15.458;2023-05-29T12:50:52;5.07;;;4.88;;
10469;SDS011;5282;47.052;15.458;2023-05-29T12:53:20;4.63;;;4.45;;
10469;SDS011;5282;47.052;15.458;2023-05-29T12:55:47;5.47;;;5.18;;
10469;SDS011;5282;47.052;15.458;2023-05-29T12:58:14;5.45;;;5.10;;
10469;SDS011;5282;47.052;15.458;2023-05-29T13:00:44;5.80;;;5.40;;
10469;SDS011;5282;47.052;15.458;2023-05-29T13:03:11;5.63;;;5.32;;
10469;SDS011;5282;47.052;15.458;2023-05-29T13:05:38;5.55;;;5.25;;
10469;SDS011;5282;47.052;15.458;2023-05-29T13:08:05;5.50;;;5.10;;
10469;SDS011;5282;47.052;15.458;2023-05-29T13:10:33;5.88;;;5.60;;
10469;SDS011;5282;47.052;15.458;2023-05-29T13:13:00;5.40;;;4.78;;
10469;SDS011;5282;47.052;15.458;2023-05-29T13:15:27;5.32;;;5.00;;
10469;SDS011;5282;47.052;15.458;2023-05-29T13:17:55;5.22;;;4.90;;
10469;SDS011;5282;47.052;15.458;2023-05-29T13:20:22;5.35;;;5.05;;
10469;SDS011;5282;47.052;15.458;2023-05-29T13:22:49;6.10;;;5.60;;
10469;SDS011;5282;47.052;15.458;2023-05-29T13:25:16;5.10;;;4.82;;
10469;SDS011;5282;47.052;15.458;2023-05-29T13:27:46;5.30;;;5.00;;
10469;SDS011;5282;47.052;15.458;2023-05-29T13:30:13;5.00;;;4.70;;
10469;SDS011;5282;47.052;15.458;2023-05-29T13:32:41;6.20;;;5.70;;
10469;SDS011;5282;47.052;15.458;2023-05-29T13:35:10;4.90;;;4.70;;
10469;SDS011;5282;47.052;15.458;2023-05-29T13:37:37;5.00;;;4.80;;
10469;SDS011;5282;47.052;15.458;2023-05-29T13:40:05;5.53;;;5.10;;
10469;SDS011;5282;47.052;15.458;2023-05-29T13:42:34;5.05;;;4.85;;
10469;SDS011;5282;47.052;15.458;2023-05-29T13:45:01;5.43;;;5.13;;
10469;SDS011;5282;47.052;15.458;2023-05-29T13:47:29;5.15;;;4.85;;
10469;SDS011;5282;47.052;15.458;2023-05-29T13:49:57;5.43;;;5.13;;
10469;SDS011;5282;47.052;15.458;2023-05-29T13:52:26;5.20;;;5.00;;
10469;SDS011;5282;47.052;15.458;2023-05-29T13:54:55;5.20;;;5.00;;
10469;SDS011;5282;47.052;15.458;2023-05-29T13:57:23;5.22;;;5.03;;
10469;SDS011;5282;47.052;15.458;2023-05-29T13:59:50;5.30;;;5.00;;
10469;SDS011;5282;47.052;15.458;2023-05-29T14:02:16;5.47;;;5.18;;
10469;SDS011;5282;47.052;15.458;2023-05-29T14:04:43;5.18;;;4.90;;
10469;SDS011;5282;47.052;15.458;2023-05-29T14:07:10;5.60;;;5.20;;
10469;SDS011;5282;47.052;15.458;2023-05-29T14:09:38;5.55;;;5.25;;
10469;SDS011;5282;47.052;15.458;2023-05-29T14:12:06;4.90;;;4.70;;
10469;SDS011;5282;47.052;15.458;2023-05-29T14:14:33;5.32;;;5.03;;
10469;SDS011;5282;47.052;15.458;2023-05-29T14:17:00;4.90;;;4.70;;
10469;SDS011;5282;47.052;15.458;2023-05-29T14:19:30;4.78;;;4.57;;
10469;SDS011;5282;47.052;15.458;2023-05-29T14:21:57;4.85;;;4.65;;
10469;SDS011;5282;47.052;15.458;2023-05-29T14:24:25;5.32;;;5.03;;
10469;SDS011;5282;47.052;15.458;2023-05-29T14:26:53;5.50;;;5.20;;
10469;SDS011;5282;47.052;15.458;2023-05-29T14:29:20;5.10;;;4.80;;
10469;SDS011;5282;47.052;15.458;2023-05-29T14:31:47;5.40;;;5.10;;
10469;SDS011;5282;47.052;15.458;2023-05-29T14:34:14;5.60;;;5.30;;
10469;SDS011;5282;47.052;15.458;2023-05-29T14:36:40;4.78;;;4.57;;
10469;SDS011;5282;47.052;15.458;2023-05-29T14:39:10;5.03;;;4.82;;
10469;SDS011;5282;47.052;15.458;2023-05-29T14:41:37;4.82;;;4.63;;
10469;SDS011;5282;47.052;15.458;2023-05-29T14:44:06;5.10;;;4.70;;
10469;SDS011;5282;47.052;15.458;2023-05-29T14:46:32;5.07;;;4.78;;
10469;SDS011;5282;47.052;15.458;2023-05-29T14:49:00;5.15;;;4.95;;
10469;SDS011;5282;47.052;15.458;2023-05-29T14:51:27;5.20;;;4.93;;
10469;SDS011;5282;47.052;15.458;2023-05-29T14:53:54;5.15;;;4.85;;
10469;SDS011;5282;47.052;15.458;2023-05-29T14:56:21;5.18;;;4.70;;
10469;SDS011;5282;47.052;15.458;2023-05-29T14:58:48;5.55;;;5.25;;
10469;SDS011;5282;47.052;15.458;2023-05-29T15:01:16;5.70;;;5.20;;
10469;SDS011;5282;47.052;15.458;2023-05-29T15:03:43;5.60;;;5.30;;
10469;SDS011;5282;47.052;15.458;2023-05-29T15:06:10;4.82;;;4.63;;